createdAt,value
2022-08-10T00:04:50.825Z,2.2
2022-08-10T00:09:51.484Z,2.6
2022-08-10T00:14:51.506Z,3.1
2022-08-10T00:20:03.083Z,2.7
2022-08-10T00:24:52.173Z,2.4
2022-08-10T00:29:52.509Z,2.6
2022-08-10T00:34:52.860Z,2.8
2022-08-10T00:39:53.208Z,2.9
2022-08-10T00:44:53.541Z,3.1
2022-08-10T00:49:55.849Z,2.1
2022-08-10T00:54:54.194Z,3.1
2022-08-10T00:59:58.936Z,2.3
2022-08-10T01:04:59.459Z,2.4
2022-08-10T01:09:55.543Z,3.2
2022-08-10T01:14:55.510Z,3.1
2022-08-10T01:19:55.798Z,2.5
2022-08-10T01:24:58.078Z,2.1
2022-08-10T01:29:56.366Z,2.3
2022-08-10T01:34:56.758Z,2.5
2022-08-10T01:39:57.034Z,2.3
2022-08-10T01:44:57.336Z,2.2
2022-08-10T01:49:57.764Z,2.4
2022-08-10T01:54:57.854Z,2.9
2022-08-10T02:00:02.770Z,2.5
2022-08-10T02:04:58.425Z,4.1
2022-08-10T02:09:58.760Z,2.4
2022-08-10T02:14:59.324Z,2.2
2022-08-10T02:19:59.282Z,2.5
2022-08-10T02:24:59.503Z,3.4
2022-08-10T02:29:59.768Z,3.5
2022-08-10T02:34:59.998Z,3.0
2022-08-10T02:40:00.248Z,3.8
2022-08-10T02:45:19.472Z,3.9
2022-08-10T02:50:00.766Z,3.5
2022-08-10T02:55:11.269Z,3.9
2022-08-10T03:00:01.205Z,3.8
2022-08-10T03:05:01.454Z,4.0
2022-08-10T03:10:01.621Z,3.0
2022-08-10T03:15:01.858Z,3.9
2022-08-10T03:20:35.158Z,3.7
2022-08-10T03:25:02.273Z,3.5
2022-08-10T03:30:32.734Z,3.0
2022-08-10T03:35:02.680Z,3.9
2022-08-10T03:40:02.917Z,3.7
2022-08-10T03:45:03.133Z,3.4
2022-08-10T03:50:24.634Z,3.6
2022-08-10T03:55:03.577Z,4.6
2022-08-10T04:00:03.767Z,3.6
2022-08-10T04:05:03.994Z,4.0
2022-08-10T04:10:04.206Z,3.8
2022-08-10T04:15:04.453Z,3.3
2022-08-10T04:20:04.617Z,4.3
2022-08-10T04:25:04.774Z,3.4
2022-08-10T04:30:04.935Z,3.1
2022-08-10T04:35:05.108Z,3.3
2022-08-10T04:40:05.252Z,2.8
2022-08-10T04:45:05.435Z,3.0
2022-08-10T04:50:05.630Z,2.4
2022-08-10T04:55:05.775Z,4.0
2022-08-10T05:00:07.454Z,3.4
2022-08-10T05:05:06.160Z,4.2
2022-08-10T05:10:09.267Z,4.0
2022-08-10T05:15:06.525Z,3.6
2022-08-10T05:20:07.659Z,4.4
2022-08-10T05:25:06.923Z,3.9
2022-08-10T05:30:07.112Z,3.5
2022-08-10T05:35:07.248Z,3.6
2022-08-10T05:40:07.433Z,3.5
2022-08-10T06:05:08.469Z,2.9
2022-08-10T06:10:10.354Z,3.3
2022-08-10T06:15:19.756Z,3.1
2022-08-10T06:30:19.847Z,5.3
2022-08-10T06:35:10.036Z,3.8
2022-08-10T06:40:10.775Z,3.0
2022-08-10T06:45:10.870Z,3.1
2022-08-10T06:55:11.838Z,3.0
2022-08-10T07:00:14.928Z,2.5
2022-08-10T07:05:12.953Z,2.8
2022-08-10T07:10:13.600Z,3.2
2022-08-10T07:15:14.257Z,3.3
2022-08-10T07:20:14.986Z,2.8
2022-08-10T07:25:15.752Z,2.9
2022-08-10T07:30:16.406Z,3.4
2022-08-10T07:35:17.132Z,2.1
2022-08-10T07:40:19.963Z,2.7
2022-08-10T07:50:19.855Z,2.2
2022-08-10T08:00:20.946Z,2.8
2022-08-10T08:05:57.234Z,1.9
2022-08-10T08:10:22.239Z,3.2
2022-08-10T08:16:17.621Z,2.9
2022-08-10T08:20:23.637Z,1.9
2022-08-10T08:25:24.326Z,2.3
2022-08-10T08:30:27.025Z,1.9
2022-08-10T08:35:25.638Z,2.3
2022-08-10T08:50:27.515Z,2.1
2022-08-10T08:56:00.787Z,2.2
2022-08-10T09:00:28.748Z,2.0
2022-08-10T09:05:29.398Z,1.9
2022-08-10T09:10:34.088Z,1.7
2022-08-10T09:15:40.495Z,2.3
2022-08-10T09:20:31.432Z,2.0
2022-08-10T09:25:32.049Z,2.2
2022-08-10T09:36:29.040Z,2.7
2022-08-10T09:41:02.257Z,2.4
2022-08-10T09:45:34.943Z,2.8
2022-08-10T09:51:16.001Z,2.1
2022-08-10T09:56:17.052Z,1.8
2022-08-10T10:00:37.326Z,2.3
2022-08-10T10:05:38.155Z,1.9
2022-08-10T10:10:46.538Z,1.4
2022-08-10T10:15:39.917Z,1.3
2022-08-10T10:20:40.691Z,1.7
2022-08-10T10:25:50.183Z,1.6
2022-08-10T10:30:42.460Z,1.3
2022-08-10T10:35:43.333Z,1.6
2022-08-10T10:40:44.156Z,1.8
2022-08-10T10:45:50.752Z,1.9
2022-08-10T10:50:45.886Z,2.4
2022-08-10T10:56:13.252Z,1.7
2022-08-10T11:05:48.542Z,1.5
2022-08-10T11:15:50.306Z,1.6
2022-08-10T11:20:51.167Z,1.4
2022-08-10T11:25:52.031Z,2.4
2022-08-10T11:30:53.057Z,1.7
2022-08-10T11:35:53.756Z,1.3
2022-08-10T11:40:54.595Z,1.6
2022-08-10T11:45:55.698Z,1.5
2022-08-10T11:50:56.307Z,1.3
2022-08-10T11:55:57.231Z,2.6
2022-08-10T12:00:58.064Z,1.5
2022-08-10T12:05:59.037Z,2.0
2022-08-10T12:10:59.834Z,1.5
2022-08-10T12:16:05.134Z,1.6
2022-08-10T12:21:01.461Z,1.2
2022-08-10T12:26:02.544Z,1.6
2022-08-10T12:31:03.235Z,1.4
2022-08-10T12:41:05.078Z,1.5
2022-08-10T12:46:07.091Z,1.0
2022-08-10T12:51:06.901Z,1.4
2022-08-10T12:56:08.007Z,1.5
2022-08-10T13:01:16.965Z,1.3
2022-08-10T13:06:09.901Z,1.5
2022-08-10T13:11:24.401Z,1.6
2022-08-10T13:21:20.510Z,1.5
2022-08-10T13:26:13.596Z,1.4
2022-08-10T13:31:16.924Z,1.3
2022-08-10T13:36:15.429Z,1.9
2022-08-10T13:41:16.197Z,1.8
2022-08-10T13:46:22.304Z,2.5
2022-08-10T13:51:18.157Z,1.8
2022-08-10T13:56:19.160Z,1.9
2022-08-10T14:01:20.181Z,1.7
2022-08-10T14:06:21.110Z,2.0
2022-08-10T14:11:22.039Z,1.5
2022-08-10T14:16:23.046Z,1.9
2022-08-10T14:21:24.050Z,1.5
2022-08-10T14:26:25.001Z,2.3
2022-08-10T14:31:26.021Z,1.7
2022-08-10T14:36:26.999Z,2.1
2022-08-10T14:42:04.400Z,1.9
2022-08-10T14:51:44.042Z,1.4
2022-08-10T14:56:31.365Z,2.3
2022-08-10T15:01:59.950Z,1.9
2022-08-10T15:06:32.998Z,2.1
2022-08-10T15:16:35.046Z,1.5
2022-08-10T15:21:42.849Z,1.6
2022-08-10T15:26:37.127Z,2.5
2022-08-10T15:31:38.101Z,1.8
2022-08-10T15:36:39.163Z,2.2
2022-08-10T15:41:57.661Z,1.7
2022-08-10T15:51:54.064Z,2.1
2022-08-10T15:56:43.323Z,2.8
2022-08-10T16:02:12.567Z,1.9
2022-08-10T16:06:45.445Z,1.8
2022-08-10T16:11:46.519Z,1.9
2022-08-10T16:16:47.578Z,2.0
2022-08-10T16:21:48.645Z,1.9
2022-08-10T16:26:49.736Z,2.0
2022-08-10T16:31:50.783Z,2.4
2022-08-10T16:36:51.943Z,2.0
2022-08-10T16:42:04.994Z,1.8
2022-08-10T16:46:54.125Z,2.6
2022-08-10T16:56:56.621Z,2.0
2022-08-10T17:01:58.039Z,2.8
2022-08-10T17:06:59.533Z,2.5
2022-08-10T17:12:01.175Z,2.0
2022-08-10T17:17:02.850Z,1.7
2022-08-10T17:22:04.690Z,2.5
2022-08-10T17:28:05.262Z,2.0
2022-08-10T17:32:08.025Z,2.7
2022-08-10T17:37:09.762Z,2.2
2022-08-10T17:42:11.573Z,1.9
2022-08-10T17:47:13.353Z,2.6
2022-08-10T17:52:15.175Z,2.4
2022-08-10T17:57:16.966Z,1.7
2022-08-10T18:02:20.871Z,2.1
2022-08-10T18:07:20.457Z,2.5
2022-08-10T18:12:30.173Z,2.0
2022-08-10T18:17:23.591Z,1.9
2022-08-10T18:28:01.477Z,2.0
2022-08-10T18:32:27.063Z,2.4
2022-08-10T18:37:28.036Z,3.5
2022-08-10T18:42:29.028Z,2.7
2022-08-10T18:47:29.883Z,2.2
2022-08-10T18:52:30.819Z,2.5
2022-08-10T18:57:31.634Z,2.8
2022-08-10T19:02:32.465Z,2.5
2022-08-10T19:07:33.286Z,2.6
2022-08-10T19:12:34.108Z,2.8
2022-08-10T19:18:03.670Z,2.2
2022-08-10T19:22:35.522Z,3.2
2022-08-10T19:27:36.554Z,2.6
2022-08-10T19:37:37.788Z,2.3
2022-08-10T19:42:40.407Z,2.7
2022-08-10T19:47:39.214Z,2.0
2022-08-10T19:52:40.128Z,2.3
2022-08-10T19:57:40.505Z,2.6
2022-08-10T20:02:41.176Z,2.8
2022-08-10T20:07:41.833Z,2.6
2022-08-10T20:12:42.458Z,2.3
2022-08-10T20:17:51.385Z,2.5
2022-08-10T20:27:59.633Z,2.8
2022-08-10T20:32:45.063Z,3.0
2022-08-10T20:38:03.920Z,2.7
2022-08-10T20:42:46.349Z,2.9
2022-08-10T20:47:54.147Z,3.8
2022-08-10T20:52:47.504Z,3.2
2022-08-10T20:57:56.740Z,3.0
2022-08-10T21:02:49.008Z,3.2
2022-08-10T21:08:01.605Z,3.7
2022-08-10T21:12:49.785Z,3.9
2022-08-10T21:22:50.904Z,4.4
2022-08-10T21:27:55.421Z,3.6
2022-08-10T21:32:52.037Z,3.5
2022-08-10T21:37:57.118Z,3.6
2022-08-10T21:42:53.047Z,4.1
2022-08-10T21:48:07.276Z,3.2
2022-08-10T21:52:54.211Z,3.8
2022-08-10T21:57:54.710Z,4.2
2022-08-10T22:02:55.197Z,4.0
2022-08-10T22:07:56.170Z,3.1
2022-08-10T22:12:56.216Z,4.6
2022-08-10T22:22:57.118Z,4.2
2022-08-10T22:27:57.982Z,4.4
2022-08-10T22:31:25.966Z,3.2
2022-08-10T22:32:58.017Z,5.2
2022-08-10T22:37:58.470Z,4.5
2022-08-10T22:43:11.024Z,5.5
2022-08-10T22:47:59.368Z,4.5
2022-08-10T22:53:03.919Z,4.2
2022-08-10T22:58:00.284Z,4.6
2022-08-10T23:03:00.892Z,4.7
2022-08-10T23:08:01.213Z,5.2
2022-08-10T23:13:01.655Z,4.7
2022-08-10T23:18:02.634Z,3.9
2022-08-10T23:23:07.433Z,5.5
2022-08-10T23:28:02.905Z,3.9
2022-08-10T23:33:03.111Z,4.3
2022-08-10T23:38:03.691Z,4.2
2022-08-10T23:48:04.489Z,4.0
2022-08-10T23:53:13.324Z,3.5
2022-08-10T23:58:05.281Z,3.6
